Die Darstellen des Panoramas erfordert JavaScript


Herzlich Willkommen auf dem Verkehrslandeplatz Coburg Brandensteinsebene

Der Verkehrslandeplatz Coburg Brandensteinsebene liegt oberhalb der Stadt und der Veste Coburg, eingebettet in eine herrliche Mittelgebirgslandschaft zwischen Thüringerwald und dem Maintal. Er hat sich durch das Engagement der Stadt Coburg, die ansässigen Firmen und durch den Aero Club Coburg zu einem modernen Flugplatz entwickelt.

Neuigkeiten

Ab dem 01.04.2020 wird die luftrechtliche Halterschaft für den Verkehrslandeplatz Coburg vom Aero Club Coburg e.V. auf die neu gegründete SÜC Verkehrslandeplatz GmbH – eine 100%ige Tochtergesellschaft der SÜC GmbH - übergehen.

Weiterlesen ...

Hinweise beim Einflug aus vom Coronavirus Betroffenen Gebieten

Weiterlesen ...

Automatic Terminal Information Service

EDQC 051820Z AUTO 11006KT CAVOK 13/M04 Q1022=
 
SÜC Verkehrslandeplatz GmbH

Tower
Zur Brandensteinsebene 1
96450 Coburg

Kontakt

+49 (0) 95 61 / 9 20 98
+49 (0) 95 61 / 9 20 06

ICAO-Code EDQC

Impressum | Datenschutzerklärung

© SÜC Verkehrslandeplatz GmbH